createdAt,value
2022-10-13T00:02:18.870Z,12.65
2022-10-13T00:05:25.876Z,12.28
2022-10-13T00:08:32.675Z,10.85
2022-10-13T00:11:39.284Z,9.71
2022-10-13T00:14:45.979Z,8.85
2022-10-13T00:17:52.403Z,8.50
2022-10-13T00:20:59.311Z,9.52
2022-10-13T00:24:06.431Z,10.29
2022-10-13T00:27:13.175Z,10.85
2022-10-13T00:30:19.772Z,11.20
2022-10-13T00:33:26.912Z,11.43
2022-10-13T00:36:34.017Z,11.60
2022-10-13T00:39:41.235Z,11.88
2022-10-13T00:42:47.945Z,12.17
2022-10-13T00:45:55.509Z,12.35
2022-10-13T00:49:07.034Z,11.44
2022-10-13T00:52:15.477Z,10.06
2022-10-13T00:55:27.227Z,9.05
2022-10-13T00:58:34.041Z,8.67
2022-10-13T01:01:41.166Z,9.77
2022-10-13T01:04:49.909Z,10.88
2022-10-13T01:07:58.073Z,11.55
2022-10-13T01:11:21.023Z,11.97
2022-10-13T01:14:36.051Z,12.04
2022-10-13T01:17:51.698Z,10.67
2022-10-13T01:21:13.092Z,9.35
2022-10-13T01:24:36.172Z,8.37
2022-10-13T01:27:59.421Z,8.09
2022-10-13T01:31:12.284Z,9.42
2022-10-13T01:34:23.684Z,10.48
2022-10-13T01:37:34.267Z,10.96
2022-10-13T01:40:45.356Z,11.28
2022-10-13T01:43:58.219Z,11.60
2022-10-13T01:47:06.035Z,11.91
2022-10-13T01:50:14.563Z,11.81
2022-10-13T01:53:22.743Z,10.48
2022-10-13T01:56:32.999Z,9.18
2022-10-13T01:59:39.628Z,8.56
2022-10-13T02:02:55.288Z,9.47
2022-10-13T02:06:11.178Z,10.36
2022-10-13T02:09:28.246Z,10.90
2022-10-13T02:12:40.457Z,11.28
2022-10-13T02:15:51.036Z,11.53
2022-10-13T02:18:59.366Z,11.75
2022-10-13T02:22:07.688Z,11.91
2022-10-13T02:25:14.744Z,11.78
2022-10-13T02:28:21.952Z,10.41
2022-10-13T02:31:28.697Z,9.16
2022-10-13T02:34:35.564Z,8.23
2022-10-13T02:37:42.132Z,7.86
2022-10-13T02:40:48.726Z,8.90
2022-10-13T02:43:55.291Z,9.83
2022-10-13T02:47:04.253Z,10.42
2022-10-13T02:50:11.796Z,10.80
2022-10-13T02:53:18.472Z,11.06
2022-10-13T02:56:25.144Z,11.28
2022-10-13T02:59:31.641Z,11.52
2022-10-13T03:02:38.302Z,11.70
2022-10-13T03:05:45.121Z,11.46
2022-10-13T03:08:51.784Z,10.06
2022-10-13T03:11:58.744Z,8.82
2022-10-13T03:15:06.038Z,8.24
2022-10-13T03:18:13.291Z,9.24
2022-10-13T03:21:20.313Z,10.22
2022-10-13T03:24:27.086Z,10.77
2022-10-13T03:27:33.644Z,11.08
2022-10-13T03:30:40.415Z,11.30
2022-10-13T03:33:47.384Z,11.49
2022-10-13T03:36:53.971Z,11.63
2022-10-13T03:40:00.717Z,11.39
2022-10-13T03:43:07.438Z,10.02
2022-10-13T03:46:16.375Z,8.77
2022-10-13T03:49:25.172Z,8.16
2022-10-13T03:52:34.402Z,9.12
2022-10-13T03:55:41.175Z,10.04
2022-10-13T03:58:47.857Z,10.52
2022-10-13T04:01:54.333Z,10.88
2022-10-13T04:05:00.969Z,11.20
2022-10-13T04:08:07.907Z,11.41
2022-10-13T04:11:16.718Z,10.86
2022-10-13T04:14:22.600Z,9.33
2022-10-13T04:17:29.332Z,8.15
2022-10-13T04:20:40.151Z,7.72
2022-10-13T04:23:46.901Z,8.79
2022-10-13T04:26:53.551Z,9.64
2022-10-13T04:30:00.276Z,10.11
2022-10-13T04:33:07.340Z,10.48
2022-10-13T04:36:15.916Z,10.77
2022-10-13T04:39:22.962Z,10.97
2022-10-13T04:42:29.883Z,11.17
2022-10-13T04:45:36.575Z,11.31
2022-10-13T04:48:43.594Z,11.47
2022-10-13T04:51:50.227Z,11.27
2022-10-13T04:54:56.775Z,9.87
2022-10-13T04:58:03.376Z,8.58
2022-10-13T05:01:17.647Z,7.66
2022-10-13T05:04:27.978Z,7.34
2022-10-13T05:07:34.779Z,8.56
2022-10-13T05:10:41.388Z,9.59
2022-10-13T05:13:48.027Z,10.18
2022-10-13T05:16:55.988Z,10.59
2022-10-13T05:20:02.869Z,10.90
2022-10-13T05:23:09.601Z,11.12
2022-10-13T05:26:18.275Z,11.32
2022-10-13T05:29:24.909Z,11.54
2022-10-13T05:32:31.612Z,11.40
2022-10-13T05:35:38.212Z,10.02
2022-10-13T05:38:45.369Z,8.73
2022-10-13T05:41:52.028Z,7.81
2022-10-13T05:45:01.619Z,7.59
2022-10-13T05:48:09.031Z,8.84
2022-10-13T05:51:18.733Z,9.85
2022-10-13T05:54:25.912Z,10.53
2022-10-13T05:57:34.450Z,10.99
2022-10-13T06:00:43.496Z,11.43
2022-10-13T06:03:54.145Z,11.75
2022-10-13T06:07:01.000Z,12.01
2022-10-13T06:10:09.949Z,11.98
2022-10-13T06:13:16.677Z,10.71
2022-10-13T06:16:23.311Z,9.59
2022-10-13T06:19:30.173Z,8.80
2022-10-13T06:22:38.406Z,8.61
2022-10-13T06:25:50.871Z,9.94
2022-10-13T06:28:59.671Z,11.13
2022-10-13T06:32:11.064Z,11.91
2022-10-13T06:35:18.052Z,12.43
2022-10-13T06:38:24.633Z,12.84
2022-10-13T06:41:32.428Z,12.80
2022-10-13T06:44:38.949Z,11.59
2022-10-13T06:47:45.843Z,10.52
2022-10-13T06:50:52.508Z,9.78
2022-10-13T06:53:59.654Z,9.95
2022-10-13T06:57:09.472Z,11.22
2022-10-13T07:00:16.765Z,12.13
2022-10-13T07:03:25.168Z,12.71
2022-10-13T07:06:31.828Z,13.09
2022-10-13T07:09:38.698Z,13.17
2022-10-13T07:12:45.255Z,12.11
2022-10-13T07:15:51.847Z,11.23
2022-10-13T07:18:58.482Z,11.18
2022-10-13T07:22:05.198Z,12.34
2022-10-13T07:25:12.377Z,13.33
2022-10-13T07:28:19.292Z,13.97
2022-10-13T07:31:27.744Z,13.42
2022-10-13T07:34:34.555Z,12.37
2022-10-13T07:37:41.479Z,12.20
2022-10-13T07:40:48.688Z,13.35
2022-10-13T07:43:58.157Z,14.13
2022-10-13T07:47:04.876Z,13.41
2022-10-13T07:50:12.285Z,12.55
2022-10-13T07:53:18.997Z,13.12
2022-10-13T07:56:25.656Z,14.40
2022-10-13T07:59:34.589Z,14.82
2022-10-13T08:02:41.170Z,13.81
2022-10-13T08:05:47.674Z,12.96
2022-10-13T08:08:55.536Z,12.47
2022-10-13T08:12:03.045Z,13.26
2022-10-13T08:15:11.586Z,14.47
2022-10-13T08:18:18.152Z,14.88
2022-10-13T08:21:57.500Z,14.05
2022-10-13T08:24:51.794Z,13.25
2022-10-13T08:28:00.558Z,13.83
2022-10-13T08:31:08.453Z,15.01
2022-10-13T08:34:15.346Z,15.45
2022-10-13T08:37:22.565Z,14.61
2022-10-13T08:40:29.719Z,13.87
2022-10-13T08:43:45.255Z,13.39
2022-10-13T08:47:08.126Z,13.79
2022-10-13T08:50:18.888Z,15.09
2022-10-13T08:53:31.901Z,15.28
2022-10-13T08:56:39.412Z,14.51
2022-10-13T08:59:46.041Z,13.91
2022-10-13T09:02:53.337Z,13.87
2022-10-13T09:06:12.754Z,15.14
2022-10-13T09:09:18.563Z,15.94
2022-10-13T09:12:26.687Z,15.22
2022-10-13T09:15:45.676Z,14.59
2022-10-13T09:18:53.696Z,14.15
2022-10-13T09:22:15.244Z,13.90
2022-10-13T09:25:23.338Z,14.77
2022-10-13T09:28:32.055Z,16.22
2022-10-13T09:31:39.466Z,16.49
2022-10-13T09:34:49.096Z,15.68
2022-10-13T09:38:06.625Z,15.15
2022-10-13T09:41:24.527Z,14.78
2022-10-13T09:44:33.102Z,14.54
2022-10-13T09:47:40.898Z,14.40
2022-10-13T09:50:53.212Z,14.57
2022-10-13T09:54:00.020Z,16.02
2022-10-13T09:57:12.772Z,17.04
2022-10-13T10:00:23.139Z,16.47
2022-10-13T10:03:34.573Z,15.98
2022-10-13T10:06:42.625Z,15.73
2022-10-13T10:09:52.537Z,15.61
2022-10-13T10:12:59.089Z,15.57
2022-10-13T10:16:13.474Z,15.55
2022-10-13T10:19:24.016Z,15.60
2022-10-13T10:22:41.693Z,15.66
2022-10-13T10:25:50.492Z,15.74
2022-10-13T10:29:20.089Z,15.81
2022-10-13T10:32:44.307Z,15.90
2022-10-13T10:35:57.424Z,16.02
2022-10-13T10:39:13.961Z,16.14
2022-10-13T10:42:48.415Z,16.27
2022-10-13T10:46:00.252Z,16.43
2022-10-13T10:49:19.954Z,16.56
2022-10-13T10:52:36.713Z,16.65
2022-10-13T10:55:53.706Z,16.77
2022-10-13T10:59:13.507Z,16.89
2022-10-13T11:02:38.860Z,17.00
2022-10-13T11:06:22.781Z,17.10
2022-10-13T11:10:03.011Z,17.23
2022-10-13T11:13:23.286Z,17.37
2022-10-13T11:16:33.907Z,17.48
2022-10-13T11:19:42.041Z,17.59
2022-10-13T11:23:26.679Z,17.69
2022-10-13T11:26:45.889Z,17.81
2022-10-13T11:30:00.234Z,17.95
2022-10-13T11:33:52.931Z,18.10
2022-10-13T11:37:01.809Z,18.25
2022-10-13T11:40:21.864Z,18.34
2022-10-13T11:43:45.215Z,18.46
2022-10-13T11:47:03.199Z,18.60
2022-10-13T11:50:22.239Z,18.69
2022-10-13T11:53:33.843Z,18.77
2022-10-13T11:56:49.163Z,18.89
2022-10-13T11:59:57.639Z,19.01
2022-10-13T12:03:23.095Z,19.11
2022-10-13T12:06:35.755Z,19.20
2022-10-13T12:09:52.845Z,19.29
2022-10-13T12:13:02.485Z,19.39
2022-10-13T12:16:09.949Z,19.45
2022-10-13T12:19:23.936Z,19.54
2022-10-13T12:22:31.178Z,19.67
2022-10-13T12:25:38.723Z,19.85
2022-10-13T12:28:55.954Z,20.02
2022-10-13T12:32:02.716Z,20.13
2022-10-13T12:35:21.295Z,20.19
2022-10-13T12:38:28.168Z,20.17
2022-10-13T12:41:36.990Z,20.15
2022-10-13T12:44:42.334Z,20.09
2022-10-13T12:47:53.873Z,20.04
2022-10-13T12:51:16.790Z,20.04
2022-10-13T12:54:26.792Z,20.01
2022-10-13T12:57:37.956Z,19.98
2022-10-13T13:00:44.755Z,19.94
2022-10-13T13:03:58.424Z,19.82
2022-10-13T13:07:07.841Z,19.73
2022-10-13T13:10:22.503Z,19.65
2022-10-13T13:13:30.262Z,19.59
2022-10-13T13:16:36.878Z,19.52
2022-10-13T13:19:45.757Z,19.49
2022-10-13T13:22:52.341Z,19.52
2022-10-13T13:26:08.386Z,19.51
2022-10-13T13:29:15.105Z,19.47
2022-10-13T13:32:23.016Z,19.43
2022-10-13T13:35:29.913Z,19.43
2022-10-13T13:38:37.513Z,19.43
2022-10-13T13:41:45.112Z,19.47
2022-10-13T13:44:51.796Z,19.52
2022-10-13T13:48:00.813Z,19.60
2022-10-13T13:51:09.134Z,19.69
2022-10-13T13:54:15.861Z,19.70
2022-10-13T13:57:22.943Z,19.68
2022-10-13T14:00:29.881Z,19.67
2022-10-13T14:03:36.619Z,19.76
2022-10-13T14:06:45.243Z,20.02
2022-10-13T14:09:55.493Z,20.28
2022-10-13T14:13:06.095Z,20.39
2022-10-13T14:16:17.191Z,20.33
2022-10-13T14:19:23.938Z,20.32
2022-10-13T14:22:30.657Z,20.34
2022-10-13T14:25:38.949Z,20.26
2022-10-13T14:28:45.915Z,20.15
2022-10-13T14:31:52.588Z,20.01
2022-10-13T14:34:59.264Z,19.82
2022-10-13T14:38:05.835Z,19.64
2022-10-13T14:41:15.216Z,19.50
2022-10-13T14:44:22.581Z,19.38
2022-10-13T14:47:29.053Z,19.32
2022-10-13T14:50:40.047Z,19.40
2022-10-13T14:53:47.548Z,19.53
2022-10-13T14:56:54.103Z,19.52
2022-10-13T15:00:02.048Z,19.45
2022-10-13T15:03:09.284Z,19.38
2022-10-13T15:06:21.417Z,19.28
2022-10-13T15:09:38.942Z,19.09
2022-10-13T15:12:55.933Z,18.81
2022-10-13T15:16:04.753Z,18.56
2022-10-13T15:19:11.433Z,18.30
2022-10-13T15:22:18.209Z,18.02
2022-10-13T15:25:24.940Z,17.75
2022-10-13T15:28:36.832Z,17.46
2022-10-13T15:31:43.526Z,17.18
2022-10-13T15:34:50.161Z,16.91
2022-10-13T15:37:56.712Z,16.65
2022-10-13T15:41:04.877Z,16.41
2022-10-13T15:44:11.439Z,16.18
2022-10-13T15:47:17.970Z,15.97
2022-10-13T15:50:24.551Z,15.77
2022-10-13T15:53:32.022Z,15.60
2022-10-13T15:56:38.776Z,15.45
2022-10-13T15:59:45.415Z,15.31
2022-10-13T16:02:53.340Z,15.17
2022-10-13T16:06:03.477Z,15.03
2022-10-13T16:09:10.072Z,14.88
2022-10-13T16:12:16.866Z,14.73
2022-10-13T16:15:26.122Z,14.58
2022-10-13T16:18:32.259Z,14.44
2022-10-13T16:21:38.946Z,14.28
2022-10-13T16:24:45.775Z,14.12
2022-10-13T16:27:52.740Z,13.96
2022-10-13T16:31:03.830Z,13.81
2022-10-13T16:34:13.207Z,13.65
2022-10-13T16:37:20.265Z,13.50
2022-10-13T16:40:27.327Z,13.35
2022-10-13T16:43:34.664Z,13.59
2022-10-13T16:46:43.031Z,15.14
2022-10-13T16:49:49.937Z,16.36
2022-10-13T16:52:56.862Z,17.15
2022-10-13T16:56:04.540Z,17.73
2022-10-13T16:59:12.196Z,17.47
2022-10-13T17:02:18.983Z,16.48
2022-10-13T17:05:26.445Z,15.76
2022-10-13T17:08:33.929Z,15.25
2022-10-13T17:11:43.005Z,14.85
2022-10-13T17:14:50.140Z,14.48
2022-10-13T17:17:57.156Z,14.18
2022-10-13T17:21:05.898Z,13.92
2022-10-13T17:24:12.579Z,13.71
2022-10-13T17:27:19.762Z,13.53
2022-10-13T17:30:26.794Z,13.72
2022-10-13T17:33:36.256Z,15.24
2022-10-13T17:36:41.456Z,16.55
2022-10-13T17:39:48.490Z,17.21
2022-10-13T17:42:55.519Z,17.43
2022-10-13T17:46:35.036Z,16.53
2022-10-13T17:49:39.283Z,15.59
2022-10-13T17:52:46.086Z,15.03
2022-10-13T17:55:54.778Z,14.59
2022-10-13T17:59:03.001Z,14.22
2022-10-13T18:02:09.888Z,13.89
2022-10-13T18:05:16.894Z,13.60
2022-10-13T18:08:23.615Z,13.32
2022-10-13T18:11:30.568Z,13.41
2022-10-13T18:14:37.281Z,14.85
2022-10-13T18:17:43.847Z,15.95
2022-10-13T18:20:50.420Z,16.60
2022-10-13T18:23:58.831Z,16.72
2022-10-13T18:27:06.173Z,15.70
2022-10-13T18:30:21.373Z,14.79
2022-10-13T18:33:29.434Z,14.12
2022-10-13T18:36:37.763Z,13.63
2022-10-13T18:39:49.873Z,13.19
2022-10-13T18:42:56.497Z,13.13
2022-10-13T18:46:03.360Z,14.32
2022-10-13T18:49:13.654Z,15.48
2022-10-13T18:52:22.209Z,16.33
2022-10-13T18:55:29.010Z,16.59
2022-10-13T18:58:36.493Z,15.63
2022-10-13T19:01:44.479Z,14.75
2022-10-13T19:04:51.269Z,14.14
2022-10-13T19:07:58.326Z,13.72
2022-10-13T19:11:13.445Z,13.38
2022-10-13T19:14:20.105Z,13.07
2022-10-13T19:17:26.756Z,13.14
2022-10-13T19:20:33.693Z,14.52
2022-10-13T19:23:44.627Z,15.67
2022-10-13T19:27:09.488Z,16.45
2022-10-13T19:30:17.163Z,16.58
2022-10-13T19:33:23.831Z,15.58
2022-10-13T19:36:33.111Z,14.69
2022-10-13T19:39:42.768Z,14.03
2022-10-13T19:42:49.476Z,13.53
2022-10-13T19:45:59.645Z,13.12
2022-10-13T19:49:06.919Z,12.79
2022-10-13T19:52:15.133Z,12.85
2022-10-13T19:55:21.975Z,14.16
2022-10-13T19:58:30.073Z,15.36
2022-10-13T20:01:40.306Z,16.16
2022-10-13T20:05:01.383Z,16.77
2022-10-13T20:08:09.425Z,16.41
2022-10-13T20:11:23.004Z,15.23
2022-10-13T20:14:30.771Z,14.30
2022-10-13T20:17:39.889Z,13.67
2022-10-13T20:20:46.464Z,13.15
2022-10-13T20:23:53.923Z,12.71
2022-10-13T20:27:00.489Z,12.69
2022-10-13T20:30:08.659Z,13.99
2022-10-13T20:33:15.292Z,15.11
2022-10-13T20:36:22.345Z,15.78
2022-10-13T20:39:29.283Z,16.19
2022-10-13T20:42:35.847Z,16.22
2022-10-13T20:45:42.521Z,15.17
2022-10-13T20:52:16.431Z,13.48
2022-10-13T20:55:25.380Z,12.96
2022-10-13T20:58:34.012Z,12.94
2022-10-13T21:01:42.524Z,14.35
2022-10-13T21:04:49.518Z,15.45
2022-10-13T21:07:57.600Z,16.03
2022-10-13T21:11:07.069Z,16.36
2022-10-13T21:14:12.313Z,16.04
2022-10-13T21:17:20.931Z,14.78
2022-10-13T21:20:28.173Z,13.87
2022-10-13T21:23:35.483Z,13.20
2022-10-13T21:26:42.981Z,13.02
2022-10-13T21:29:54.038Z,14.19
2022-10-13T21:33:00.990Z,15.18
2022-10-13T21:36:10.981Z,15.70
2022-10-13T21:39:18.781Z,16.04
2022-10-13T21:42:25.858Z,16.00
2022-10-13T21:45:32.557Z,14.86
2022-10-13T21:48:39.742Z,13.85
2022-10-13T21:51:46.453Z,13.12
2022-10-13T21:54:53.836Z,12.90
2022-10-13T21:58:05.126Z,13.87
2022-10-13T22:01:13.257Z,14.80
2022-10-13T22:04:20.102Z,15.40
2022-10-13T22:07:26.724Z,15.82
2022-10-13T22:10:33.361Z,15.87
2022-10-13T22:13:42.339Z,14.72
2022-10-13T22:16:50.706Z,13.66
2022-10-13T22:19:57.704Z,12.92
2022-10-13T22:23:04.405Z,12.78
2022-10-13T22:26:11.583Z,14.00
2022-10-13T22:29:21.499Z,14.87
2022-10-13T22:32:28.438Z,15.43
2022-10-13T22:35:37.543Z,15.79
2022-10-13T22:38:44.565Z,16.13
2022-10-13T22:41:53.364Z,15.89
2022-10-13T22:45:00.192Z,14.69
2022-10-13T22:48:07.990Z,13.75
2022-10-13T22:51:18.559Z,13.06
2022-10-13T22:54:25.170Z,12.89
2022-10-13T22:57:32.596Z,13.95
2022-10-13T23:00:39.772Z,14.86
2022-10-13T23:03:49.893Z,15.47
2022-10-13T23:06:56.664Z,15.91
2022-10-13T23:10:03.189Z,15.93
2022-10-13T23:13:09.938Z,14.78
2022-10-13T23:16:18.996Z,13.68
2022-10-13T23:19:26.037Z,12.88
2022-10-13T23:22:32.858Z,12.60
2022-10-13T23:25:42.282Z,13.80
2022-10-13T23:28:49.103Z,14.80
2022-10-13T23:31:55.887Z,15.35
2022-10-13T23:35:02.410Z,15.73
2022-10-13T23:38:13.669Z,16.04
2022-10-13T23:41:20.221Z,15.93
2022-10-13T23:44:27.080Z,14.67
2022-10-13T23:47:35.190Z,13.50
2022-10-13T23:50:41.817Z,12.68
2022-10-13T23:53:48.637Z,12.40
2022-10-13T23:56:57.084Z,13.53
